sensor_id;sensor_type;location;lat;lon;timestamp;noise_LAeq;noise_LA_min;noise_LA_max;noise_LA01;noise_LA95
37279;Laerm;7458;49.002;8.472;2023-12-07T00:00:02;61.95;40.62;73.57;;
37279;Laerm;7458;49.002;8.472;2023-12-07T00:02:28;62.01;41.46;73.63;;
37279;Laerm;7458;49.002;8.472;2023-12-07T00:04:54;61.84;40.80;74.00;;
37279;Laerm;7458;49.002;8.472;2023-12-07T00:07:20;62.02;42.03;73.60;;
37279;Laerm;7458;49.002;8.472;2023-12-07T00:09:46;61.83;40.80;73.34;;
37279;Laerm;7458;49.002;8.472;2023-12-07T00:12:12;61.35;41.46;73.61;;
37279;Laerm;7458;49.002;8.472;2023-12-07T00:14:38;61.67;41.06;73.23;;
37279;Laerm;7458;49.002;8.472;2023-12-07T00:17:04;62.00;41.38;73.63;;
37279;Laerm;7458;49.002;8.472;2023-12-07T00:19:30;61.62;40.33;73.57;;
37279;Laerm;7458;49.002;8.472;2023-12-07T00:21:56;61.89;40.98;73.41;;
37279;Laerm;7458;49.002;8.472;2023-12-07T00:24:22;61.96;40.23;73.22;;
37279;Laerm;7458;49.002;8.472;2023-12-07T00:26:49;61.91;40.23;73.81;;
37279;Laerm;7458;49.002;8.472;2023-12-07T00:29:15;61.83;40.27;73.63;;
37279;Laerm;7458;49.002;8.472;2023-12-07T00:31:41;61.60;40.71;73.49;;
37279;Laerm;7458;49.002;8.472;2023-12-07T00:34:07;61.83;40.13;74.04;;
37279;Laerm;7458;49.002;8.472;2023-12-07T00:36:35;61.74;39.92;73.97;;
37279;Laerm;7458;49.002;8.472;2023-12-07T00:39:01;61.63;39.70;73.51;;
37279;Laerm;7458;49.002;8.472;2023-12-07T00:41:29;61.67;40.62;73.65;;
37279;Laerm;7458;49.002;8.472;2023-12-07T00:43:55;61.74;40.53;73.61;;
37279;Laerm;7458;49.002;8.472;2023-12-07T00:46:21;61.81;39.58;73.74;;
37279;Laerm;7458;49.002;8.472;2023-12-07T00:48:47;61.38;40.71;73.62;;
37279;Laerm;7458;49.002;8.472;2023-12-07T00:51:14;61.68;40.89;73.53;;
37279;Laerm;7458;49.002;8.472;2023-12-07T00:53:41;61.74;40.13;73.40;;
37279;Laerm;7458;49.002;8.472;2023-12-07T00:56:07;61.69;40.03;73.60;;
37279;Laerm;7458;49.002;8.472;2023-12-07T00:58:33;61.79;40.53;73.67;;
37279;Laerm;7458;49.002;8.472;2023-12-07T01:00:59;61.73;40.33;73.34;;
37279;Laerm;7458;49.002;8.472;2023-12-07T01:03:25;61.48;40.62;73.33;;
37279;Laerm;7458;49.002;8.472;2023-12-07T01:05:51;61.71;39.92;73.26;;
37279;Laerm;7458;49.002;8.472;2023-12-07T01:08:18;61.79;40.62;73.80;;
37279;Laerm;7458;49.002;8.472;2023-12-07T01:10:44;61.74;40.62;73.46;;
37279;Laerm;7458;49.002;8.472;2023-12-07T01:13:10;61.84;40.33;73.46;;
37279;Laerm;7458;49.002;8.472;2023-12-07T01:15:36;62.79;41.96;74.81;;
37279;Laerm;7458;49.002;8.472;2023-12-07T01:18:02;61.38;40.03;74.13;;
37279;Laerm;7458;49.002;8.472;2023-12-07T01:20:28;61.76;40.62;73.58;;
37279;Laerm;7458;49.002;8.472;2023-12-07T01:22:54;61.76;40.53;73.79;;
37279;Laerm;7458;49.002;8.472;2023-12-07T01:25:20;61.75;41.14;73.73;;
37279;Laerm;7458;49.002;8.472;2023-12-07T01:27:47;61.87;40.23;73.70;;
37279;Laerm;7458;49.002;8.472;2023-12-07T01:30:14;61.87;42.03;73.49;;
37279;Laerm;7458;49.002;8.472;2023-12-07T01:32:40;61.60;42.71;73.54;;
37279;Laerm;7458;49.002;8.472;2023-12-07T01:35:07;62.45;42.16;74.95;;
37279;Laerm;7458;49.002;8.472;2023-12-07T01:37:33;61.73;41.96;73.84;;
37279;Laerm;7458;49.002;8.472;2023-12-07T01:39:59;61.76;42.16;73.28;;
37279;Laerm;7458;49.002;8.472;2023-12-07T01:42:25;62.52;42.13;73.58;;
37279;Laerm;7458;49.002;8.472;2023-12-07T01:44:51;61.88;43.24;73.66;;
37279;Laerm;7458;49.002;8.472;2023-12-07T01:47:17;61.90;42.47;73.81;;
37279;Laerm;7458;49.002;8.472;2023-12-07T01:49:44;61.94;42.82;73.36;;
37279;Laerm;7458;49.002;8.472;2023-12-07T01:52:11;62.24;42.16;78.84;;
37279;Laerm;7458;49.002;8.472;2023-12-07T01:54:38;62.13;42.47;81.03;;
37279;Laerm;7458;49.002;8.472;2023-12-07T01:57:04;61.92;42.41;73.10;;
37279;Laerm;7458;49.002;8.472;2023-12-07T01:59:31;61.89;42.71;73.86;;
37279;Laerm;7458;49.002;8.472;2023-12-07T02:01:57;61.93;40.62;73.60;;
37279;Laerm;7458;49.002;8.472;2023-12-07T02:04:23;61.91;42.22;73.75;;
37279;Laerm;7458;49.002;8.472;2023-12-07T02:06:50;61.99;42.16;73.16;;
37279;Laerm;7458;49.002;8.472;2023-12-07T02:09:18;61.99;42.65;73.32;;
37279;Laerm;7458;49.002;8.472;2023-12-07T02:11:44;62.28;42.93;73.07;;
37279;Laerm;7458;49.002;8.472;2023-12-07T02:14:11;62.09;42.71;73.40;;
37279;Laerm;7458;49.002;8.472;2023-12-07T02:16:43;62.04;42.65;73.65;;
37279;Laerm;7458;49.002;8.472;2023-12-07T02:22:05;61.78;41.38;73.51;;
37279;Laerm;7458;49.002;8.472;2023-12-07T02:24:35;61.76;40.98;72.90;;
37279;Laerm;7458;49.002;8.472;2023-12-07T02:27:03;62.09;41.22;73.40;;
37279;Laerm;7458;49.002;8.472;2023-12-07T02:29:29;62.68;41.22;73.26;;
37279;Laerm;7458;49.002;8.472;2023-12-07T02:31:55;62.24;42.09;73.75;;
37279;Laerm;7458;49.002;8.472;2023-12-07T02:34:21;62.28;42.65;73.82;;
37279;Laerm;7458;49.002;8.472;2023-12-07T02:36:49;62.23;41.75;73.42;;
37279;Laerm;7458;49.002;8.472;2023-12-07T02:39:18;62.13;42.29;73.91;;
37279;Laerm;7458;49.002;8.472;2023-12-07T02:41:46;62.16;43.09;73.55;;
37279;Laerm;7458;49.002;8.472;2023-12-07T02:44:13;62.31;44.15;73.47;;
37279;Laerm;7458;49.002;8.472;2023-12-07T02:46:39;62.45;44.73;73.00;;
37279;Laerm;7458;49.002;8.472;2023-12-07T02:49:05;62.34;45.39;73.86;;
37279;Laerm;7458;49.002;8.472;2023-12-07T02:51:31;62.29;45.57;73.66;;
37279;Laerm;7458;49.002;8.472;2023-12-07T02:53:57;62.36;44.87;73.94;;
37279;Laerm;7458;49.002;8.472;2023-12-07T02:56:23;62.24;45.72;73.13;;
37279;Laerm;7458;49.002;8.472;2023-12-07T02:58:49;62.42;45.17;73.41;;
37279;Laerm;7458;49.002;8.472;2023-12-07T03:01:15;62.51;43.99;73.88;;
37279;Laerm;7458;49.002;8.472;2023-12-07T03:03:41;62.51;44.07;74.04;;
37279;Laerm;7458;49.002;8.472;2023-12-07T03:06:08;62.39;44.43;73.50;;
37279;Laerm;7458;49.002;8.472;2023-12-07T03:08:34;62.48;44.11;74.04;;
37279;Laerm;7458;49.002;8.472;2023-12-07T03:11:00;62.44;44.07;73.91;;
37279;Laerm;7458;49.002;8.472;2023-12-07T03:13:26;62.42;44.76;73.73;;
37279;Laerm;7458;49.002;8.472;2023-12-07T03:15:52;62.64;43.34;73.04;;
37279;Laerm;7458;49.002;8.472;2023-12-07T03:18:18;62.47;43.63;73.78;;
37279;Laerm;7458;49.002;8.472;2023-12-07T03:20:44;62.53;44.07;73.98;;
37279;Laerm;7458;49.002;8.472;2023-12-07T03:23:10;62.55;43.58;73.89;;
37279;Laerm;7458;49.002;8.472;2023-12-07T03:25:36;62.30;42.76;73.46;;
37279;Laerm;7458;49.002;8.472;2023-12-07T03:28:02;62.39;42.71;73.58;;
37279;Laerm;7458;49.002;8.472;2023-12-07T03:30:28;62.52;42.53;73.90;;
37279;Laerm;7458;49.002;8.472;2023-12-07T03:32:54;62.56;42.82;73.64;;
37279;Laerm;7458;49.002;8.472;2023-12-07T03:35:20;62.34;41.89;73.77;;
37279;Laerm;7458;49.002;8.472;2023-12-07T03:37:46;62.55;42.41;73.54;;
37279;Laerm;7458;49.002;8.472;2023-12-07T03:40:12;62.50;42.53;73.75;;
37279;Laerm;7458;49.002;8.472;2023-12-07T03:42:38;62.55;42.22;73.99;;
37279;Laerm;7458;49.002;8.472;2023-12-07T03:45:05;62.56;41.14;74.16;;
37279;Laerm;7458;49.002;8.472;2023-12-07T03:47:31;62.50;41.75;73.66;;
37279;Laerm;7458;49.002;8.472;2023-12-07T03:49:57;62.56;41.61;73.16;;
37279;Laerm;7458;49.002;8.472;2023-12-07T03:52:23;62.60;41.53;73.17;;
37279;Laerm;7458;49.002;8.472;2023-12-07T03:54:49;62.67;41.30;73.90;;
37279;Laerm;7458;49.002;8.472;2023-12-07T03:57:15;63.93;41.82;73.73;;
37279;Laerm;7458;49.002;8.472;2023-12-07T03:59:41;62.84;42.41;74.01;;
37279;Laerm;7458;49.002;8.472;2023-12-07T04:02:08;62.89;43.04;73.59;;
37279;Laerm;7458;49.002;8.472;2023-12-07T04:04:34;62.88;43.19;74.05;;
37279;Laerm;7458;49.002;8.472;2023-12-07T04:07:00;62.92;44.73;74.01;;
37279;Laerm;7458;49.002;8.472;2023-12-07T04:09:26;62.97;43.39;73.63;;
37279;Laerm;7458;49.002;8.472;2023-12-07T04:11:53;62.83;42.93;73.85;;
37279;Laerm;7458;49.002;8.472;2023-12-07T04:14:19;62.98;42.71;74.17;;
37279;Laerm;7458;49.002;8.472;2023-12-07T04:16:45;62.83;43.39;73.83;;
37279;Laerm;7458;49.002;8.472;2023-12-07T04:19:11;62.90;44.23;74.02;;
37279;Laerm;7458;49.002;8.472;2023-12-07T04:21:37;62.96;44.51;73.59;;
37279;Laerm;7458;49.002;8.472;2023-12-07T04:24:03;62.99;45.57;74.16;;
37279;Laerm;7458;49.002;8.472;2023-12-07T04:26:30;63.23;44.62;74.48;;
37279;Laerm;7458;49.002;8.472;2023-12-07T04:28:56;63.01;44.62;74.37;;
37279;Laerm;7458;49.002;8.472;2023-12-07T04:31:22;62.95;44.03;73.96;;
37279;Laerm;7458;49.002;8.472;2023-12-07T04:33:48;63.52;43.68;75.17;;
37279;Laerm;7458;49.002;8.472;2023-12-07T04:36:14;63.06;44.35;74.06;;
37279;Laerm;7458;49.002;8.472;2023-12-07T04:38:40;63.02;45.01;73.41;;
37279;Laerm;7458;49.002;8.472;2023-12-07T04:41:06;63.24;45.48;74.04;;
37279;Laerm;7458;49.002;8.472;2023-12-07T04:43:32;63.06;45.97;74.12;;
37279;Laerm;7458;49.002;8.472;2023-12-07T04:45:59;63.07;45.66;73.95;;
37279;Laerm;7458;49.002;8.472;2023-12-07T04:48:25;63.24;45.99;73.67;;
37279;Laerm;7458;49.002;8.472;2023-12-07T04:50:51;63.42;45.57;76.90;;
37279;Laerm;7458;49.002;8.472;2023-12-07T04:53:18;63.37;48.78;74.11;;
37279;Laerm;7458;49.002;8.472;2023-12-07T04:55:44;63.30;48.32;74.34;;
37279;Laerm;7458;49.002;8.472;2023-12-07T04:58:14;63.39;47.42;73.79;;
37279;Laerm;7458;49.002;8.472;2023-12-07T05:00:41;63.12;43.72;73.79;;
37279;Laerm;7458;49.002;8.472;2023-12-07T05:03:07;63.11;44.11;73.95;;
37279;Laerm;7458;49.002;8.472;2023-12-07T05:05:34;63.59;44.31;74.11;;
37279;Laerm;7458;49.002;8.472;2023-12-07T05:08:00;63.70;44.27;76.23;;
37279;Laerm;7458;49.002;8.472;2023-12-07T05:10:26;63.14;44.19;73.39;;
37279;Laerm;7458;49.002;8.472;2023-12-07T05:12:52;64.10;44.03;76.05;;
37279;Laerm;7458;49.002;8.472;2023-12-07T05:15:18;63.48;44.76;74.28;;
37279;Laerm;7458;49.002;8.472;2023-12-07T05:17:44;63.28;46.78;74.15;;
37279;Laerm;7458;49.002;8.472;2023-12-07T05:20:10;63.12;46.40;74.23;;
37279;Laerm;7458;49.002;8.472;2023-12-07T05:22:38;63.57;47.08;73.97;;
37279;Laerm;7458;49.002;8.472;2023-12-07T05:25:04;63.25;46.15;73.90;;
37279;Laerm;7458;49.002;8.472;2023-12-07T05:27:30;63.80;45.42;74.05;;
37279;Laerm;7458;49.002;8.472;2023-12-07T05:29:56;63.43;45.94;73.99;;
37279;Laerm;7458;49.002;8.472;2023-12-07T05:32:23;63.54;46.50;74.20;;
37279;Laerm;7458;49.002;8.472;2023-12-07T05:34:49;63.59;46.43;73.57;;
37279;Laerm;7458;49.002;8.472;2023-12-07T05:37:16;63.34;45.94;74.57;;
37279;Laerm;7458;49.002;8.472;2023-12-07T05:39:42;63.50;45.48;73.91;;
37279;Laerm;7458;49.002;8.472;2023-12-07T05:42:08;63.27;47.20;74.20;;
37279;Laerm;7458;49.002;8.472;2023-12-07T05:44:34;63.42;47.08;73.90;;
37279;Laerm;7458;49.002;8.472;2023-12-07T05:47:00;63.18;45.39;74.26;;
37279;Laerm;7458;49.002;8.472;2023-12-07T05:49:26;64.02;45.75;73.89;;
37279;Laerm;7458;49.002;8.472;2023-12-07T05:51:53;63.70;46.05;74.01;;
37279;Laerm;7458;49.002;8.472;2023-12-07T05:54:19;64.29;45.60;75.97;;
37279;Laerm;7458;49.002;8.472;2023-12-07T05:56:48;63.36;46.20;74.06;;
37279;Laerm;7458;49.002;8.472;2023-12-07T05:59:14;63.66;45.94;73.93;;
37279;Laerm;7458;49.002;8.472;2023-12-07T06:01:40;63.46;45.97;76.65;;
37279;Laerm;7458;49.002;8.472;2023-12-07T06:04:09;63.40;46.02;74.16;;
37279;Laerm;7458;49.002;8.472;2023-12-07T06:06:35;63.53;45.75;74.16;;
37279;Laerm;7458;49.002;8.472;2023-12-07T06:09:02;63.57;44.87;74.04;;
37279;Laerm;7458;49.002;8.472;2023-12-07T06:11:29;63.79;46.18;74.25;;
37279;Laerm;7458;49.002;8.472;2023-12-07T06:13:55;63.76;45.42;73.95;;
37279;Laerm;7458;49.002;8.472;2023-12-07T06:16:21;63.81;44.54;74.23;;
37279;Laerm;7458;49.002;8.472;2023-12-07T06:18:47;64.23;44.45;74.53;;
37279;Laerm;7458;49.002;8.472;2023-12-07T06:21:14;63.58;44.65;73.78;;
37279;Laerm;7458;49.002;8.472;2023-12-07T06:23:41;63.85;45.63;74.34;;
37279;Laerm;7458;49.002;8.472;2023-12-07T06:26:08;63.69;45.07;74.16;;
37279;Laerm;7458;49.002;8.472;2023-12-07T06:28:34;63.95;44.23;74.10;;
37279;Laerm;7458;49.002;8.472;2023-12-07T06:31:06;63.49;43.97;74.21;;
37279;Laerm;7458;49.002;8.472;2023-12-07T06:33:35;64.14;43.90;74.53;;
37279;Laerm;7458;49.002;8.472;2023-12-07T06:36:02;64.80;44.43;75.94;;
37279;Laerm;7458;49.002;8.472;2023-12-07T06:38:29;65.15;50.96;78.39;;
37279;Laerm;7458;49.002;8.472;2023-12-07T06:40:55;64.76;44.94;75.55;;
37279;Laerm;7458;49.002;8.472;2023-12-07T06:43:22;64.12;45.20;74.40;;
37279;Laerm;7458;49.002;8.472;2023-12-07T06:45:48;72.41;56.08;82.64;;
37279;Laerm;7458;49.002;8.472;2023-12-07T06:48:14;64.74;45.45;74.24;;
37279;Laerm;7458;49.002;8.472;2023-12-07T06:50:40;64.39;45.57;75.44;;
37279;Laerm;7458;49.002;8.472;2023-12-07T06:53:07;64.91;44.51;81.77;;
37279;Laerm;7458;49.002;8.472;2023-12-07T06:55:33;65.12;49.67;76.01;;
37279;Laerm;7458;49.002;8.472;2023-12-07T06:57:59;65.78;49.35;79.42;;
37279;Laerm;7458;49.002;8.472;2023-12-07T07:00:25;65.64;46.05;77.62;;
37279;Laerm;7458;49.002;8.472;2023-12-07T07:02:51;66.01;44.73;82.62;;
37279;Laerm;7458;49.002;8.472;2023-12-07T07:05:17;64.88;50.01;74.86;;
37279;Laerm;7458;49.002;8.472;2023-12-07T07:07:43;65.24;48.95;74.55;;
37279;Laerm;7458;49.002;8.472;2023-12-07T07:10:09;65.12;48.08;76.13;;
37279;Laerm;7458;49.002;8.472;2023-12-07T07:12:37;65.01;47.08;74.94;;
37279;Laerm;7458;49.002;8.472;2023-12-07T07:15:03;68.37;47.57;80.38;;
37279;Laerm;7458;49.002;8.472;2023-12-07T07:17:29;65.24;43.77;77.32;;
37279;Laerm;7458;49.002;8.472;2023-12-07T07:19:55;64.07;44.58;74.00;;
37279;Laerm;7458;49.002;8.472;2023-12-07T07:22:22;65.25;45.27;77.67;;
37279;Laerm;7458;49.002;8.472;2023-12-07T07:24:48;66.29;47.96;75.52;;
37279;Laerm;7458;49.002;8.472;2023-12-07T07:27:14;65.55;45.69;75.29;;
37279;Laerm;7458;49.002;8.472;2023-12-07T07:29:40;64.53;45.91;73.88;;
37279;Laerm;7458;49.002;8.472;2023-12-07T07:32:06;64.56;45.57;75.51;;
37279;Laerm;7458;49.002;8.472;2023-12-07T07:34:32;64.95;46.48;78.00;;
37279;Laerm;7458;49.002;8.472;2023-12-07T07:36:58;64.23;46.91;74.23;;
37279;Laerm;7458;49.002;8.472;2023-12-07T07:39:24;64.82;44.69;75.51;;
37279;Laerm;7458;49.002;8.472;2023-12-07T07:41:50;66.09;43.49;76.93;;
37279;Laerm;7458;49.002;8.472;2023-12-07T07:44:16;65.96;44.39;77.44;;
37279;Laerm;7458;49.002;8.472;2023-12-07T07:46:43;64.51;43.54;74.59;;
37279;Laerm;7458;49.002;8.472;2023-12-07T07:49:09;65.84;44.90;75.59;;
37279;Laerm;7458;49.002;8.472;2023-12-07T07:51:35;64.92;44.19;74.27;;
37279;Laerm;7458;49.002;8.472;2023-12-07T07:54:01;64.40;44.76;74.85;;
37279;Laerm;7458;49.002;8.472;2023-12-07T07:56:27;65.19;44.87;75.10;;
37279;Laerm;7458;49.002;8.472;2023-12-07T07:58:53;64.61;44.39;76.23;;
37279;Laerm;7458;49.002;8.472;2023-12-07T08:01:19;65.48;44.35;75.58;;
37279;Laerm;7458;49.002;8.472;2023-12-07T08:03:45;65.43;45.07;75.39;;
37279;Laerm;7458;49.002;8.472;2023-12-07T08:06:11;66.68;44.90;79.52;;
37279;Laerm;7458;49.002;8.472;2023-12-07T08:08:37;65.64;44.87;76.42;;
37279;Laerm;7458;49.002;8.472;2023-12-07T08:11:04;64.92;44.62;84.50;;
37279;Laerm;7458;49.002;8.472;2023-12-07T08:13:31;64.30;43.24;76.05;;
37279;Laerm;7458;49.002;8.472;2023-12-07T08:15:57;64.73;43.24;76.04;;
37279;Laerm;7458;49.002;8.472;2023-12-07T08:18:23;64.70;43.49;74.13;;
37279;Laerm;7458;49.002;8.472;2023-12-07T08:20:49;64.97;42.76;75.87;;
37279;Laerm;7458;49.002;8.472;2023-12-07T08:23:15;64.78;43.39;76.65;;
37279;Laerm;7458;49.002;8.472;2023-12-07T08:25:41;62.83;43.77;73.26;;
37279;Laerm;7458;49.002;8.472;2023-12-07T08:28:09;62.98;43.90;73.58;;
37279;Laerm;7458;49.002;8.472;2023-12-07T08:30:36;63.79;43.29;73.75;;
37279;Laerm;7458;49.002;8.472;2023-12-07T08:33:02;63.54;41.68;73.70;;
37279;Laerm;7458;49.002;8.472;2023-12-07T08:35:28;64.57;43.29;77.05;;
37279;Laerm;7458;49.002;8.472;2023-12-07T08:37:54;63.97;42.93;74.66;;
37279;Laerm;7458;49.002;8.472;2023-12-07T08:40:20;66.13;43.24;80.78;;
37279;Laerm;7458;49.002;8.472;2023-12-07T08:42:46;64.30;42.71;73.75;;
37279;Laerm;7458;49.002;8.472;2023-12-07T08:45:14;64.68;43.04;74.58;;
37279;Laerm;7458;49.002;8.472;2023-12-07T08:47:41;65.65;41.89;78.32;;
37279;Laerm;7458;49.002;8.472;2023-12-07T08:50:07;64.53;42.41;79.44;;
37279;Laerm;7458;49.002;8.472;2023-12-07T08:52:33;63.56;42.09;74.03;;
37279;Laerm;7458;49.002;8.472;2023-12-07T08:55:00;64.34;42.22;78.61;;
37279;Laerm;7458;49.002;8.472;2023-12-07T08:57:26;64.24;41.81;73.44;;
37279;Laerm;7458;49.002;8.472;2023-12-07T08:59:52;64.95;42.29;77.79;;
37279;Laerm;7458;49.002;8.472;2023-12-07T09:02:18;64.03;41.61;75.17;;
37279;Laerm;7458;49.002;8.472;2023-12-07T09:04:44;64.50;42.82;77.15;;
37279;Laerm;7458;49.002;8.472;2023-12-07T09:07:10;63.69;42.71;74.11;;
37279;Laerm;7458;49.002;8.472;2023-12-07T09:09:41;63.94;40.98;74.95;;
37279;Laerm;7458;49.002;8.472;2023-12-07T09:12:13;64.60;41.61;75.48;;
37279;Laerm;7458;49.002;8.472;2023-12-07T09:14:40;63.83;42.42;74.61;;
37279;Laerm;7458;49.002;8.472;2023-12-07T09:17:06;63.13;41.53;73.89;;
37279;Laerm;7458;49.002;8.472;2023-12-07T09:19:32;63.98;41.14;73.45;;
37279;Laerm;7458;49.002;8.472;2023-12-07T09:21:58;63.07;42.98;74.05;;
37279;Laerm;7458;49.002;8.472;2023-12-07T09:24:25;62.95;41.38;73.71;;
37279;Laerm;7458;49.002;8.472;2023-12-07T09:26:52;62.66;40.71;73.51;;
37279;Laerm;7458;49.002;8.472;2023-12-07T09:29:18;64.01;41.75;73.90;;
37279;Laerm;7458;49.002;8.472;2023-12-07T09:31:44;62.90;42.09;73.61;;
37279;Laerm;7458;49.002;8.472;2023-12-07T09:34:10;63.29;42.93;74.52;;
37279;Laerm;7458;49.002;8.472;2023-12-07T09:36:37;64.25;43.04;77.85;;
37279;Laerm;7458;49.002;8.472;2023-12-07T09:39:03;63.47;43.04;73.87;;
37279;Laerm;7458;49.002;8.472;2023-12-07T09:41:29;63.01;43.39;73.95;;
37279;Laerm;7458;49.002;8.472;2023-12-07T09:43:56;62.54;42.69;73.45;;
37279;Laerm;7458;49.002;8.472;2023-12-07T09:46:22;62.89;42.29;80.36;;
37279;Laerm;7458;49.002;8.472;2023-12-07T09:48:49;62.69;42.98;75.48;;
37279;Laerm;7458;49.002;8.472;2023-12-07T09:51:15;62.95;44.31;73.80;;
37279;Laerm;7458;49.002;8.472;2023-12-07T09:53:42;62.56;44.51;73.66;;
37279;Laerm;7458;49.002;8.472;2023-12-07T09:56:09;62.44;43.09;74.04;;
37279;Laerm;7458;49.002;8.472;2023-12-07T09:58:36;62.40;42.09;74.04;;
37279;Laerm;7458;49.002;8.472;2023-12-07T10:01:02;61.76;41.96;74.45;;
37279;Laerm;7458;49.002;8.472;2023-12-07T10:03:29;61.89;41.75;80.49;;
37279;Laerm;7458;49.002;8.472;2023-12-07T10:05:58;61.20;40.80;74.07;;
37279;Laerm;7458;49.002;8.472;2023-12-07T10:08:33;61.65;43.94;74.14;;
37279;Laerm;7458;49.002;8.472;2023-12-07T10:11:09;61.07;43.29;74.49;;
37279;Laerm;7458;49.002;8.472;2023-12-07T10:13:37;63.72;41.75;80.37;;
37279;Laerm;7458;49.002;8.472;2023-12-07T10:16:08;62.01;42.03;79.03;;
37279;Laerm;7458;49.002;8.472;2023-12-07T10:18:35;60.90;42.29;73.56;;
37279;Laerm;7458;49.002;8.472;2023-12-07T10:21:02;60.51;42.41;74.10;;
37279;Laerm;7458;49.002;8.472;2023-12-07T10:23:29;60.17;43.39;73.13;;
37279;Laerm;7458;49.002;8.472;2023-12-07T10:25:59;60.16;44.19;77.89;;
37279;Laerm;7458;49.002;8.472;2023-12-07T10:28:28;58.57;43.77;73.43;;
37279;Laerm;7458;49.002;8.472;2023-12-07T10:30:54;59.69;44.73;73.72;;
37279;Laerm;7458;49.002;8.472;2023-12-07T10:33:20;60.62;45.17;72.77;;
37279;Laerm;7458;49.002;8.472;2023-12-07T10:35:47;59.25;43.77;72.14;;
37279;Laerm;7458;49.002;8.472;2023-12-07T10:38:16;57.21;44.03;72.13;;
37279;Laerm;7458;49.002;8.472;2023-12-07T10:40:44;63.06;44.51;93.86;;
37279;Laerm;7458;49.002;8.472;2023-12-07T10:43:12;62.08;44.27;86.21;;
37279;Laerm;7458;49.002;8.472;2023-12-07T10:45:40;59.24;44.47;71.39;;
37279;Laerm;7458;49.002;8.472;2023-12-07T10:48:10;54.01;42.22;69.83;;
37279;Laerm;7458;49.002;8.472;2023-12-07T10:50:41;58.52;39.34;71.57;;
37279;Laerm;7458;49.002;8.472;2023-12-07T10:53:33;59.57;45.63;75.34;;
37279;Laerm;7458;49.002;8.472;2023-12-07T10:56:07;55.57;41.68;72.29;;
37279;Laerm;7458;49.002;8.472;2023-12-07T10:58:36;58.81;40.98;72.56;;
37279;Laerm;7458;49.002;8.472;2023-12-07T11:01:03;59.89;41.75;75.82;;
37279;Laerm;7458;49.002;8.472;2023-12-07T11:03:32;58.09;41.46;74.57;;
37279;Laerm;7458;49.002;8.472;2023-12-07T11:05:58;55.57;41.14;74.61;;
37279;Laerm;7458;49.002;8.472;2023-12-07T11:08:29;56.61;39.81;71.94;;
37279;Laerm;7458;49.002;8.472;2023-12-07T11:11:20;59.64;40.53;73.99;;
37279;Laerm;7458;49.002;8.472;2023-12-07T11:16:35;56.56;41.68;72.52;;
37279;Laerm;7458;49.002;8.472;2023-12-07T11:19:01;57.26;42.09;71.70;;
37279;Laerm;7458;49.002;8.472;2023-12-07T11:21:28;58.98;42.42;73.49;;
37279;Laerm;7458;49.002;8.472;2023-12-07T11:23:54;57.39;42.71;72.84;;
37279;Laerm;7458;49.002;8.472;2023-12-07T11:26:23;58.09;42.16;77.61;;
37279;Laerm;7458;49.002;8.472;2023-12-07T11:28:50;59.52;42.88;79.97;;
37279;Laerm;7458;49.002;8.472;2023-12-07T11:31:17;60.67;42.59;75.70;;
37279;Laerm;7458;49.002;8.472;2023-12-07T11:33:43;62.15;44.19;73.82;;
37279;Laerm;7458;49.002;8.472;2023-12-07T11:36:11;61.26;43.63;77.11;;
37279;Laerm;7458;49.002;8.472;2023-12-07T11:41:24;62.98;42.65;81.00;;
37279;Laerm;7458;49.002;8.472;2023-12-07T11:43:50;60.57;42.22;73.71;;
37279;Laerm;7458;49.002;8.472;2023-12-07T11:46:19;61.88;42.76;73.89;;
37279;Laerm;7458;49.002;8.472;2023-12-07T11:48:47;62.77;43.39;73.82;;
37279;Laerm;7458;49.002;8.472;2023-12-07T11:51:15;62.37;42.35;73.71;;
37279;Laerm;7458;49.002;8.472;2023-12-07T11:53:41;61.39;41.46;75.10;;
37279;Laerm;7458;49.002;8.472;2023-12-07T11:56:09;62.95;43.28;74.65;;
37279;Laerm;7458;49.002;8.472;2023-12-07T11:58:39;63.23;42.93;74.53;;
37279;Laerm;7458;49.002;8.472;2023-12-07T12:01:06;62.18;41.14;73.71;;
37279;Laerm;7458;49.002;8.472;2023-12-07T12:03:33;61.90;41.30;73.49;;
37279;Laerm;7458;49.002;8.472;2023-12-07T12:06:02;63.57;44.11;77.73;;
37279;Laerm;7458;49.002;8.472;2023-12-07T12:08:28;65.70;43.77;83.72;;
37279;Laerm;7458;49.002;8.472;2023-12-07T12:10:55;63.78;42.71;74.87;;
37279;Laerm;7458;49.002;8.472;2023-12-07T12:13:32;63.52;43.55;74.96;;
37279;Laerm;7458;49.002;8.472;2023-12-07T12:15:59;62.13;42.35;73.65;;
37279;Laerm;7458;49.002;8.472;2023-12-07T12:18:26;63.02;41.46;75.81;;
37279;Laerm;7458;49.002;8.472;2023-12-07T12:20:53;63.17;42.71;74.43;;
37279;Laerm;7458;49.002;8.472;2023-12-07T12:23:20;62.80;42.09;74.29;;
37279;Laerm;7458;49.002;8.472;2023-12-07T12:25:47;66.81;44.51;85.88;;
37279;Laerm;7458;49.002;8.472;2023-12-07T12:28:16;64.72;43.04;92.29;;
37279;Laerm;7458;49.002;8.472;2023-12-07T12:30:48;62.59;42.35;74.35;;
37279;Laerm;7458;49.002;8.472;2023-12-07T12:33:14;64.00;43.29;80.09;;
37279;Laerm;7458;49.002;8.472;2023-12-07T12:35:41;63.52;42.71;76.72;;
37279;Laerm;7458;49.002;8.472;2023-12-07T12:38:10;62.80;42.16;77.30;;
37279;Laerm;7458;49.002;8.472;2023-12-07T12:40:37;62.27;41.89;74.24;;
37279;Laerm;7458;49.002;8.472;2023-12-07T12:43:03;62.72;43.34;73.99;;
37279;Laerm;7458;49.002;8.472;2023-12-07T12:45:30;63.00;44.58;74.63;;
37279;Laerm;7458;49.002;8.472;2023-12-07T12:47:58;62.45;44.31;74.32;;
37279;Laerm;7458;49.002;8.472;2023-12-07T12:50:37;62.20;44.97;74.23;;
37279;Laerm;7458;49.002;8.472;2023-12-07T12:53:05;63.05;43.39;74.52;;
37279;Laerm;7458;49.002;8.472;2023-12-07T12:55:35;62.12;43.77;74.18;;
37279;Laerm;7458;49.002;8.472;2023-12-07T12:58:01;65.32;44.11;89.56;;
37279;Laerm;7458;49.002;8.472;2023-12-07T13:00:30;64.02;45.23;75.59;;
37279;Laerm;7458;49.002;8.472;2023-12-07T13:02:57;62.66;43.24;74.48;;
37279;Laerm;7458;49.002;8.472;2023-12-07T13:05:23;63.05;43.29;75.91;;
37279;Laerm;7458;49.002;8.472;2023-12-07T13:07:49;62.82;43.86;74.39;;
37279;Laerm;7458;49.002;8.472;2023-12-07T13:10:16;62.48;42.88;74.71;;
37279;Laerm;7458;49.002;8.472;2023-12-07T13:12:43;62.60;41.14;74.31;;
37279;Laerm;7458;49.002;8.472;2023-12-07T13:15:11;62.50;39.81;74.55;;
37279;Laerm;7458;49.002;8.472;2023-12-07T13:17:42;62.96;40.43;76.83;;
37279;Laerm;7458;49.002;8.472;2023-12-07T13:20:09;62.95;41.53;73.92;;
37279;Laerm;7458;49.002;8.472;2023-12-07T13:22:37;62.56;41.82;74.08;;
37279;Laerm;7458;49.002;8.472;2023-12-07T13:25:03;62.11;43.24;74.07;;
37279;Laerm;7458;49.002;8.472;2023-12-07T13:27:31;62.50;43.09;74.29;;
37279;Laerm;7458;49.002;8.472;2023-12-07T13:29:57;63.11;44.54;76.27;;
37279;Laerm;7458;49.002;8.472;2023-12-07T13:32:23;62.80;43.34;74.79;;
37279;Laerm;7458;49.002;8.472;2023-12-07T13:34:49;63.12;43.81;74.61;;
37279;Laerm;7458;49.002;8.472;2023-12-07T13:37:16;63.34;43.44;76.86;;
37279;Laerm;7458;49.002;8.472;2023-12-07T13:39:42;62.66;43.19;74.82;;
37279;Laerm;7458;49.002;8.472;2023-12-07T13:42:08;63.03;42.59;78.77;;
37279;Laerm;7458;49.002;8.472;2023-12-07T13:44:36;62.29;43.24;74.49;;
37279;Laerm;7458;49.002;8.472;2023-12-07T13:47:02;63.09;42.47;74.89;;
37279;Laerm;7458;49.002;8.472;2023-12-07T13:49:29;62.76;41.46;74.60;;
37279;Laerm;7458;49.002;8.472;2023-12-07T13:51:55;62.72;41.89;76.14;;
37279;Laerm;7458;49.002;8.472;2023-12-07T13:54:21;62.43;43.24;74.60;;
37279;Laerm;7458;49.002;8.472;2023-12-07T13:56:48;63.75;43.90;77.89;;
37279;Laerm;7458;49.002;8.472;2023-12-07T13:59:14;63.06;41.53;74.62;;
37279;Laerm;7458;49.002;8.472;2023-12-07T14:01:40;63.58;41.75;74.42;;